createdAt,value
2023-05-19T00:00:32.146Z,95398.00
2023-05-19T00:01:32.081Z,95398.00
2023-05-19T00:02:32.124Z,95397.00
2023-05-19T00:03:32.241Z,95397.00
2023-05-19T00:04:32.171Z,95393.00
2023-05-19T00:05:32.194Z,95394.00
2023-05-19T00:06:32.271Z,95393.00
2023-05-19T00:07:32.289Z,95390.00
2023-05-19T00:08:32.365Z,95390.00
2023-05-19T00:09:32.379Z,95388.00
2023-05-19T00:10:32.683Z,95387.00
2023-05-19T00:11:32.470Z,95390.00
2023-05-19T00:12:32.504Z,95388.00
2023-05-19T00:13:32.508Z,95389.00
2023-05-19T00:14:32.571Z,95389.00
2023-05-19T00:15:32.655Z,95388.00
2023-05-19T00:16:32.710Z,95390.00
2023-05-19T00:17:32.708Z,95390.00
2023-05-19T00:18:32.771Z,95391.00
2023-05-19T00:19:32.816Z,95390.00
2023-05-19T00:20:33.057Z,95391.00
2023-05-19T00:21:32.897Z,95390.00
2023-05-19T00:22:32.917Z,95392.00
2023-05-19T00:23:32.926Z,95391.00
2023-05-19T00:24:32.988Z,95393.00
2023-05-19T00:25:33.029Z,95393.00
2023-05-19T00:26:33.125Z,95396.00
2023-05-19T00:27:33.119Z,95392.00
2023-05-19T00:28:33.180Z,95393.00
2023-05-19T00:29:33.224Z,95394.00
2023-05-19T00:30:33.447Z,95391.00
2023-05-19T00:31:33.318Z,95393.00
2023-05-19T00:32:33.324Z,95392.00
2023-05-19T00:33:33.322Z,95394.00
2023-05-19T00:34:33.382Z,95394.00
2023-05-19T00:35:33.396Z,95396.00
2023-05-19T00:36:33.417Z,95397.00
2023-05-19T00:37:33.426Z,95396.00
2023-05-19T00:38:33.441Z,95395.00
2023-05-19T00:39:33.449Z,95395.00
2023-05-19T00:40:33.892Z,95394.00
2023-05-19T00:41:33.540Z,95391.00
2023-05-19T00:42:33.579Z,95391.00
2023-05-19T00:43:33.614Z,95394.00
2023-05-19T00:44:33.599Z,95391.00
2023-05-19T00:45:33.651Z,95391.00
2023-05-19T00:46:33.660Z,95388.00
2023-05-19T00:47:33.706Z,95389.00
2023-05-19T00:48:33.714Z,95388.00
2023-05-19T00:49:33.751Z,95386.00
2023-05-19T00:50:33.968Z,95386.00
2023-05-19T00:51:33.847Z,95386.00
2023-05-19T00:52:33.834Z,95384.00
2023-05-19T00:53:33.920Z,95384.00
2023-05-19T00:54:33.963Z,95383.00
2023-05-19T00:55:33.990Z,95384.00
2023-05-19T00:56:34.037Z,95381.00
2023-05-19T00:57:34.060Z,95382.00
2023-05-19T00:58:34.097Z,95381.00
2023-05-19T00:59:34.162Z,95379.00
2023-05-19T01:00:34.576Z,95380.00
2023-05-19T01:01:34.331Z,95378.00
2023-05-19T01:02:34.366Z,95381.00
2023-05-19T01:03:34.463Z,95378.00
2023-05-19T01:04:34.356Z,95378.00
2023-05-19T01:05:34.374Z,95381.00
2023-05-19T01:06:34.452Z,95382.00
2023-05-19T01:07:34.497Z,95383.00
2023-05-19T01:08:34.514Z,95383.00
2023-05-19T01:09:34.551Z,95382.00
2023-05-19T01:10:34.653Z,95380.00
2023-05-19T01:11:34.658Z,95381.00
2023-05-19T01:12:34.691Z,95381.00
2023-05-19T01:13:34.780Z,95381.00
2023-05-19T01:14:34.794Z,95381.00
2023-05-19T01:15:34.831Z,95379.00
2023-05-19T01:16:34.970Z,95379.00
2023-05-19T01:17:34.959Z,95379.00
2023-05-19T01:18:34.970Z,95381.00
2023-05-19T01:19:35.008Z,95381.00
2023-05-19T01:20:35.049Z,95379.00
2023-05-19T01:21:35.103Z,95379.00
2023-05-19T01:22:35.132Z,95379.00
2023-05-19T01:23:35.152Z,95378.00
2023-05-19T01:24:35.208Z,95377.00
2023-05-19T01:25:35.253Z,95377.00
2023-05-19T01:26:35.318Z,95377.00
2023-05-19T01:27:35.366Z,95378.00
2023-05-19T01:28:35.404Z,95377.00
2023-05-19T01:29:35.444Z,95377.00
2023-05-19T01:30:35.605Z,95377.00
2023-05-19T01:31:35.560Z,95376.00
2023-05-19T01:32:35.632Z,95379.00
2023-05-19T01:33:35.617Z,95380.00
2023-05-19T01:34:35.662Z,95378.00
2023-05-19T01:35:35.682Z,95378.00
2023-05-19T01:36:35.779Z,95378.00
2023-05-19T01:37:35.805Z,95378.00
2023-05-19T01:38:35.824Z,95378.00
2023-05-19T01:39:35.873Z,95378.00
2023-05-19T01:40:35.917Z,95378.00
2023-05-19T01:41:36.000Z,95378.00
2023-05-19T01:42:36.014Z,95378.00
2023-05-19T01:43:36.047Z,95378.00
2023-05-19T01:44:36.061Z,95377.00
2023-05-19T01:45:36.164Z,95377.00
2023-05-19T01:46:36.275Z,95376.00
2023-05-19T01:47:36.282Z,95375.00
2023-05-19T01:48:36.287Z,95379.00
2023-05-19T01:49:36.319Z,95376.00
2023-05-19T01:50:36.347Z,95379.00
2023-05-19T01:51:36.412Z,95379.00
2023-05-19T01:52:36.502Z,95378.00
2023-05-19T01:53:36.532Z,95380.00
2023-05-19T01:54:36.578Z,95379.00
2023-05-19T01:55:36.629Z,95378.00
2023-05-19T01:56:36.646Z,95378.00
2023-05-19T01:57:36.736Z,95375.00
2023-05-19T01:58:36.746Z,95379.00
2023-05-19T01:59:36.819Z,95378.00
2023-05-19T02:00:36.871Z,95378.00
2023-05-19T02:01:36.907Z,95381.00
2023-05-19T02:02:37.010Z,95380.00
2023-05-19T02:03:37.005Z,95381.00
2023-05-19T02:04:37.059Z,95381.00
2023-05-19T02:05:37.083Z,95380.00
2023-05-19T02:06:37.151Z,95382.00
2023-05-19T02:07:37.181Z,95382.00
2023-05-19T02:08:37.210Z,95383.00
2023-05-19T02:09:37.246Z,95384.00
2023-05-19T02:10:37.314Z,95382.00
2023-05-19T02:11:37.336Z,95384.00
2023-05-19T02:12:38.199Z,95383.00
2023-05-19T02:13:37.458Z,95382.00
2023-05-19T02:14:37.478Z,95384.00
2023-05-19T02:15:37.544Z,95384.00
2023-05-19T02:16:37.591Z,95385.00
2023-05-19T02:17:37.678Z,95388.00
2023-05-19T02:18:37.699Z,95385.00
2023-05-19T02:19:37.744Z,95388.00
2023-05-19T02:20:37.800Z,95387.00
2023-05-19T02:21:37.839Z,95387.00
2023-05-19T02:22:37.867Z,95389.00
2023-05-19T02:23:37.917Z,95387.00
2023-05-19T02:24:37.954Z,95386.00
2023-05-19T02:25:38.025Z,95387.00
2023-05-19T02:26:38.070Z,95386.00
2023-05-19T02:27:38.108Z,95387.00
2023-05-19T02:28:38.166Z,95387.00
2023-05-19T02:29:38.204Z,95385.00
2023-05-19T02:30:38.268Z,95384.00
2023-05-19T02:31:38.385Z,95385.00
2023-05-19T02:32:38.410Z,95386.00
2023-05-19T02:33:38.418Z,95387.00
2023-05-19T02:34:38.496Z,95386.00
2023-05-19T02:35:38.529Z,95385.00
2023-05-19T02:36:38.583Z,95388.00
2023-05-19T02:37:38.592Z,95386.00
2023-05-19T02:38:38.669Z,95385.00
2023-05-19T02:39:38.705Z,95385.00
2023-05-19T02:40:38.745Z,95385.00
2023-05-19T02:41:38.830Z,95385.00
2023-05-19T02:42:38.833Z,95383.00
2023-05-19T02:43:38.881Z,95386.00
2023-05-19T02:44:38.947Z,95384.00
2023-05-19T02:45:38.980Z,95385.00
2023-05-19T02:46:39.174Z,95385.00
2023-05-19T02:47:39.121Z,95383.00
2023-05-19T02:48:39.117Z,95386.00
2023-05-19T02:49:39.216Z,95383.00
2023-05-19T02:50:39.269Z,95384.00
2023-05-19T02:51:39.293Z,95381.00
2023-05-19T02:52:39.346Z,95381.00
2023-05-19T02:53:39.395Z,95379.00
2023-05-19T02:54:39.446Z,95377.00
2023-05-19T02:55:39.518Z,95378.00
2023-05-19T02:56:39.585Z,95378.00
2023-05-19T02:57:39.590Z,95378.00
2023-05-19T02:58:39.688Z,95377.00
2023-05-19T02:59:39.705Z,95376.00
2023-05-19T03:00:39.760Z,95377.00
2023-05-19T03:01:39.869Z,95376.00
2023-05-19T03:02:39.973Z,95377.00
2023-05-19T03:03:39.995Z,95376.00
2023-05-19T03:04:39.977Z,95373.00
2023-05-19T03:05:40.049Z,95373.00
2023-05-19T03:06:40.105Z,95369.00
2023-05-19T03:07:40.173Z,95369.00
2023-05-19T03:08:42.302Z,95370.00
2023-05-19T03:09:40.261Z,95368.00
2023-05-19T03:10:40.306Z,95366.00
2023-05-19T03:11:40.349Z,95367.00
2023-05-19T03:12:40.390Z,95367.00
2023-05-19T03:13:40.479Z,95368.00
2023-05-19T03:14:40.521Z,95368.00
2023-05-19T03:15:40.576Z,95368.00
2023-05-19T03:16:40.774Z,95367.00
2023-05-19T03:17:40.810Z,95368.00
2023-05-19T03:18:40.738Z,95368.00
2023-05-19T03:19:40.801Z,95366.00
2023-05-19T03:20:41.744Z,95367.00
2023-05-19T03:21:40.924Z,95368.00
2023-05-19T03:22:40.976Z,95368.00
2023-05-19T03:23:41.041Z,95366.00
2023-05-19T03:24:41.087Z,95367.00
2023-05-19T03:25:41.170Z,95364.00
2023-05-19T03:26:41.218Z,95363.00
2023-05-19T03:27:41.293Z,95365.00
2023-05-19T03:28:41.332Z,95364.00
2023-05-19T03:29:41.366Z,95364.00
2023-05-19T03:30:41.488Z,95365.00
2023-05-19T03:31:41.501Z,95363.00
2023-05-19T03:32:41.693Z,95367.00
2023-05-19T03:33:41.643Z,95366.00
2023-05-19T03:34:41.668Z,95366.00
2023-05-19T03:35:41.698Z,95367.00
2023-05-19T03:36:41.774Z,95366.00
2023-05-19T03:37:41.863Z,95367.00
2023-05-19T03:38:41.887Z,95367.00
2023-05-19T03:39:41.943Z,95366.00
2023-05-19T03:40:41.989Z,95367.00
2023-05-19T03:41:42.105Z,95367.00
2023-05-19T03:42:42.122Z,95364.00
2023-05-19T03:43:42.150Z,95365.00
2023-05-19T03:44:42.227Z,95367.00
2023-05-19T03:45:42.323Z,95364.00
2023-05-19T03:46:42.374Z,95366.00
2023-05-19T03:47:42.541Z,95365.00
2023-05-19T03:48:42.497Z,95364.00
2023-05-19T03:49:42.521Z,95363.00
2023-05-19T03:50:42.602Z,95364.00
2023-05-19T03:51:42.674Z,95364.00
2023-05-19T03:52:42.719Z,95364.00
2023-05-19T03:53:42.763Z,95364.00
2023-05-19T03:54:42.840Z,95367.00
2023-05-19T03:55:42.905Z,95366.00
2023-05-19T03:56:42.949Z,95368.00
2023-05-19T03:57:43.008Z,95370.00
2023-05-19T03:58:43.076Z,95371.00
2023-05-19T03:59:43.127Z,95372.00
2023-05-19T04:00:43.259Z,95374.00
2023-05-19T04:01:43.257Z,95375.00
2023-05-19T04:02:43.405Z,95372.00
2023-05-19T04:03:43.458Z,95373.00
2023-05-19T04:04:43.433Z,95374.00
2023-05-19T04:05:43.500Z,95372.00
2023-05-19T04:06:43.558Z,95370.00
2023-05-19T04:07:44.249Z,95369.00
2023-05-19T04:08:43.666Z,95368.00
2023-05-19T04:09:43.691Z,95366.00
2023-05-19T04:10:43.767Z,95368.00
2023-05-19T04:11:43.825Z,95368.00
2023-05-19T04:12:43.884Z,95368.00
2023-05-19T04:13:45.175Z,95366.00
2023-05-19T04:14:43.997Z,95366.00
2023-05-19T04:15:44.088Z,95365.00
2023-05-19T04:16:44.126Z,95365.00
2023-05-19T04:17:44.224Z,95365.00
2023-05-19T04:18:44.254Z,95365.00
2023-05-19T04:19:44.330Z,95366.00
2023-05-19T04:20:44.357Z,95367.00
2023-05-19T04:21:44.403Z,95367.00
2023-05-19T04:22:44.449Z,95368.00
2023-05-19T04:23:44.470Z,95368.00
2023-05-19T04:24:44.540Z,95370.00
2023-05-19T04:25:44.635Z,95369.00
2023-05-19T04:26:44.652Z,95370.00
2023-05-19T04:27:44.738Z,95372.00
2023-05-19T04:28:44.813Z,95373.00
2023-05-19T04:29:44.859Z,95375.00
2023-05-19T04:30:44.927Z,95375.00
2023-05-19T04:31:45.083Z,95376.00
2023-05-19T04:32:45.116Z,95378.00
2023-05-19T04:33:45.082Z,95377.00
2023-05-19T04:34:45.284Z,95379.00
2023-05-19T04:35:45.195Z,95377.00
2023-05-19T04:36:45.270Z,95377.00
2023-05-19T04:37:45.313Z,95377.00
2023-05-19T04:38:45.380Z,95379.00
2023-05-19T04:39:45.470Z,95378.00
2023-05-19T04:40:45.475Z,95380.00
2023-05-19T04:41:45.565Z,95379.00
2023-05-19T04:42:45.577Z,95379.00
2023-05-19T04:43:45.643Z,95380.00
2023-05-19T04:44:45.707Z,95381.00
2023-05-19T04:45:45.755Z,95382.00
2023-05-19T04:46:45.857Z,95380.00
2023-05-19T04:47:45.900Z,95379.00
2023-05-19T04:48:45.958Z,95382.00
2023-05-19T04:49:46.015Z,95381.00
2023-05-19T04:50:46.036Z,95380.00
2023-05-19T04:51:46.101Z,95379.00
2023-05-19T04:52:46.128Z,95379.00
2023-05-19T04:53:46.200Z,95377.00
2023-05-19T04:54:46.253Z,95378.00
2023-05-19T04:55:46.320Z,95379.00
2023-05-19T04:56:46.389Z,95380.00
2023-05-19T04:57:46.409Z,95382.00
2023-05-19T04:58:46.444Z,95380.00
2023-05-19T04:59:46.491Z,95379.00
2023-05-19T05:00:46.550Z,95377.00
2023-05-19T05:01:46.638Z,95373.00
2023-05-19T05:02:46.742Z,95372.00
2023-05-19T05:03:46.735Z,95374.00
2023-05-19T05:04:46.775Z,95373.00
2023-05-19T05:05:46.792Z,95375.00
2023-05-19T05:06:46.904Z,95378.00
2023-05-19T05:07:46.932Z,95378.00
2023-05-19T05:08:46.966Z,95381.00
2023-05-19T05:09:47.030Z,95381.00
2023-05-19T05:10:47.086Z,95379.00
2023-05-19T05:11:47.162Z,95376.00
2023-05-19T05:12:47.205Z,95377.00
2023-05-19T05:13:47.269Z,95374.00
2023-05-19T05:14:47.315Z,95375.00
2023-05-19T05:15:47.347Z,95375.00
2023-05-19T05:16:47.498Z,95377.00
2023-05-19T05:17:47.475Z,95377.00
2023-05-19T05:18:47.527Z,95376.00
2023-05-19T05:19:47.558Z,95376.00
2023-05-19T05:20:47.617Z,95376.00
2023-05-19T05:21:47.641Z,95372.00
2023-05-19T05:22:47.700Z,95372.00
2023-05-19T05:23:47.735Z,95372.00
2023-05-19T05:24:47.796Z,95371.00
2023-05-19T05:25:47.859Z,95370.00
2023-05-19T05:26:47.916Z,95369.00
2023-05-19T05:27:47.961Z,95366.00
2023-05-19T05:28:48.028Z,95366.00
2023-05-19T05:29:48.048Z,95368.00
2023-05-19T05:30:48.125Z,95367.00
2023-05-19T05:31:48.140Z,95372.00
2023-05-19T05:32:48.358Z,95370.00
2023-05-19T05:33:48.287Z,95369.00
2023-05-19T05:34:48.291Z,95372.00
2023-05-19T05:35:48.328Z,95367.00
2023-05-19T05:36:48.417Z,95367.00
2023-05-19T05:37:48.456Z,95365.00
2023-05-19T05:38:48.490Z,95365.00
2023-05-19T05:39:48.537Z,95364.00
2023-05-19T05:40:48.582Z,95364.00
2023-05-19T05:41:48.669Z,95365.00
2023-05-19T05:42:49.261Z,95365.00
2023-05-19T05:43:48.717Z,95363.00
2023-05-19T05:44:48.808Z,95369.00
2023-05-19T05:45:48.890Z,95365.00
2023-05-19T05:46:48.921Z,95364.00
2023-05-19T05:47:49.001Z,95365.00
2023-05-19T05:48:49.008Z,95364.00
2023-05-19T05:49:49.291Z,95362.00
2023-05-19T05:50:49.108Z,95361.00
2023-05-19T05:52:01.954Z,95362.00
2023-05-19T05:52:50.155Z,95362.00
2023-05-19T05:53:49.149Z,95362.00
2023-05-19T05:54:49.120Z,95361.00
2023-05-19T05:55:49.133Z,95360.00
2023-05-19T05:56:49.114Z,95360.00
2023-05-19T05:57:49.100Z,95358.00
2023-05-19T05:58:49.093Z,95359.00
2023-05-19T05:59:49.101Z,95358.00
2023-05-19T06:00:49.077Z,95358.00
2023-05-19T06:01:49.096Z,95358.00
2023-05-19T06:02:49.150Z,95358.00
2023-05-19T06:03:49.114Z,95359.00
2023-05-19T06:04:49.178Z,95357.00
2023-05-19T06:05:49.232Z,95357.00
2023-05-19T06:06:49.278Z,95359.00
2023-05-19T06:07:49.333Z,95354.00
2023-05-19T06:08:49.351Z,95354.00
2023-05-19T06:09:49.406Z,95353.00
2023-05-19T06:10:49.431Z,95354.00
2023-05-19T06:11:49.460Z,95354.00
2023-05-19T06:12:49.548Z,95357.00
2023-05-19T06:13:49.588Z,95356.00
2023-05-19T06:14:49.623Z,95354.00
2023-05-19T06:15:49.688Z,95355.00
2023-05-19T06:16:49.708Z,95354.00
2023-05-19T06:17:49.805Z,95358.00
2023-05-19T06:18:49.811Z,95356.00
2023-05-19T06:19:49.793Z,95359.00
2023-05-19T06:20:49.832Z,95360.00
2023-05-19T06:21:49.886Z,95364.00
2023-05-19T06:22:49.917Z,95362.00
2023-05-19T06:23:49.956Z,95363.00
2023-05-19T06:24:50.000Z,95361.00
2023-05-19T06:25:50.089Z,95362.00
2023-05-19T06:26:50.132Z,95363.00
2023-05-19T06:27:50.093Z,95362.00
2023-05-19T06:28:50.126Z,95363.00
2023-05-19T06:29:50.204Z,95363.00
2023-05-19T06:30:50.192Z,95364.00
2023-05-19T06:31:50.330Z,95359.00
2023-05-19T06:32:50.342Z,95357.00
2023-05-19T06:33:50.299Z,95356.00
2023-05-19T06:34:50.352Z,95356.00
2023-05-19T06:35:50.367Z,95353.00
2023-05-19T06:36:50.440Z,95352.00
2023-05-19T06:37:50.443Z,95353.00
2023-05-19T06:38:50.471Z,95354.00
2023-05-19T06:39:50.485Z,95355.00
2023-05-19T06:40:50.520Z,95355.00
2023-05-19T06:41:50.573Z,95352.00
2023-05-19T06:42:50.732Z,95354.00
2023-05-19T06:43:50.626Z,95355.00
2023-05-19T06:44:50.663Z,95352.00
2023-05-19T06:45:50.705Z,95353.00
2023-05-19T06:46:50.774Z,95352.00
2023-05-19T06:47:50.845Z,95355.00
2023-05-19T06:48:50.815Z,95356.00
2023-05-19T06:49:50.903Z,95353.00
2023-05-19T06:50:50.849Z,95353.00
2023-05-19T06:51:50.930Z,95354.00
2023-05-19T06:52:50.977Z,95352.00
2023-05-19T06:53:50.969Z,95354.00
2023-05-19T06:54:51.009Z,95351.00
2023-05-19T06:55:58.619Z,95352.00
2023-05-19T06:56:52.017Z,95351.00
2023-05-19T06:57:51.018Z,95350.00
2023-05-19T06:58:51.076Z,95350.00
2023-05-19T06:59:51.036Z,95349.00
2023-05-19T07:00:51.019Z,95347.00
2023-05-19T07:01:51.069Z,95346.00
2023-05-19T07:02:51.319Z,95345.00
2023-05-19T07:03:51.080Z,95345.00
2023-05-19T07:04:50.963Z,95345.00
2023-05-19T07:05:50.996Z,95344.00
2023-05-19T07:06:50.960Z,95346.00
2023-05-19T07:07:50.952Z,95344.00
2023-05-19T07:08:50.935Z,95343.00
2023-05-19T07:09:50.986Z,95346.00
2023-05-19T07:10:50.946Z,95344.00
2023-05-19T07:11:50.940Z,95344.00
2023-05-19T07:12:50.991Z,95347.00
2023-05-19T07:13:50.999Z,95347.00
2023-05-19T07:14:51.027Z,95347.00
2023-05-19T07:15:51.079Z,95346.00
2023-05-19T07:16:51.185Z,95345.00
2023-05-19T07:17:51.128Z,95347.00
2023-05-19T07:18:51.191Z,95345.00
2023-05-19T07:19:51.156Z,95346.00
2023-05-19T07:20:51.156Z,95346.00
2023-05-19T07:21:51.200Z,95345.00
2023-05-19T07:22:51.178Z,95343.00
2023-05-19T07:23:51.170Z,95343.00
2023-05-19T07:24:51.195Z,95342.00
2023-05-19T07:25:51.202Z,95341.00
2023-05-19T07:26:51.204Z,95342.00
2023-05-19T07:27:51.176Z,95340.00
2023-05-19T07:28:51.222Z,95339.00
2023-05-19T07:29:51.229Z,95337.00
2023-05-19T07:30:51.231Z,95335.00
2023-05-19T07:31:51.286Z,95335.00
2023-05-19T07:32:51.257Z,95332.00
2023-05-19T07:33:54.294Z,95332.00
2023-05-19T07:34:51.219Z,95328.00
2023-05-19T07:35:51.211Z,95327.00
2023-05-19T07:36:51.216Z,95327.00
2023-05-19T07:37:51.197Z,95327.00
2023-05-19T07:38:51.184Z,95329.00
2023-05-19T07:39:51.152Z,95326.00
2023-05-19T07:40:51.168Z,95324.00
2023-05-19T07:41:51.181Z,95324.00
2023-05-19T07:42:51.151Z,95322.00
2023-05-19T07:43:51.162Z,95322.00
2023-05-19T07:44:51.174Z,95324.00
2023-05-19T07:45:51.180Z,95323.00
2023-05-19T07:46:51.209Z,95323.00
2023-05-19T07:47:51.197Z,95323.00
2023-05-19T07:48:51.116Z,95324.00
2023-05-19T07:49:51.972Z,95321.00
2023-05-19T07:50:51.118Z,95320.00
2023-05-19T07:51:51.090Z,95318.00
2023-05-19T07:52:51.081Z,95317.00
2023-05-19T07:53:51.071Z,95317.00
2023-05-19T07:54:51.081Z,95316.00
2023-05-19T07:55:51.062Z,95314.00
2023-05-19T07:56:51.112Z,95314.00
2023-05-19T07:57:51.079Z,95314.00
2023-05-19T07:58:51.054Z,95312.00
2023-05-19T07:59:51.043Z,95309.00
2023-05-19T08:00:51.023Z,95311.00
2023-05-19T08:01:51.030Z,95309.00
2023-05-19T08:02:51.130Z,95309.00
2023-05-19T08:03:51.129Z,95311.00
2023-05-19T08:04:51.052Z,95310.00
2023-05-19T08:05:50.979Z,95307.00
2023-05-19T08:06:51.002Z,95306.00
2023-05-19T08:07:50.997Z,95306.00
2023-05-19T08:08:50.983Z,95305.00
2023-05-19T08:09:50.981Z,95303.00
2023-05-19T08:10:50.971Z,95303.00
2023-05-19T08:11:50.944Z,95303.00
2023-05-19T08:12:50.960Z,95303.00
2023-05-19T08:13:51.887Z,95303.00
2023-05-19T08:14:50.908Z,95304.00
2023-05-19T08:15:51.003Z,95302.00
2023-05-19T08:16:50.934Z,95302.00
2023-05-19T08:17:51.001Z,95299.00
2023-05-19T08:18:50.947Z,95299.00
2023-05-19T08:19:50.888Z,95300.00
2023-05-19T08:20:50.891Z,95300.00
2023-05-19T08:21:50.879Z,95297.00
2023-05-19T08:22:50.922Z,95297.00
2023-05-19T08:23:50.886Z,95298.00
2023-05-19T08:24:50.885Z,95296.00
2023-05-19T08:25:50.849Z,95294.00
2023-05-19T08:26:50.842Z,95294.00
2023-05-19T08:27:50.907Z,95294.00
2023-05-19T08:28:50.860Z,95294.00
2023-05-19T08:29:50.825Z,95296.00
2023-05-19T08:30:50.815Z,95289.00
2023-05-19T08:31:50.917Z,95292.00
2023-05-19T08:32:50.953Z,95290.00
2023-05-19T08:33:50.843Z,95290.00
2023-05-19T08:34:50.778Z,95289.00
2023-05-19T08:35:50.796Z,95286.00
2023-05-19T08:36:50.771Z,95284.00
2023-05-19T08:37:50.785Z,95282.00
2023-05-19T08:38:50.766Z,95281.00
2023-05-19T08:39:50.784Z,95281.00
2023-05-19T08:40:50.768Z,95278.00
2023-05-19T08:41:50.745Z,95279.00
2023-05-19T08:42:50.741Z,95279.00
2023-05-19T08:43:50.759Z,95277.00
2023-05-19T08:44:50.703Z,95280.00
2023-05-19T08:45:50.714Z,95277.00
2023-05-19T08:46:50.783Z,95277.00
2023-05-19T08:47:50.725Z,95273.00
2023-05-19T08:48:50.659Z,95271.00
2023-05-19T08:49:50.687Z,95267.00
2023-05-19T08:50:50.690Z,95263.00
2023-05-19T08:51:50.671Z,95262.00
2023-05-19T08:52:52.824Z,95262.00
2023-05-19T08:53:50.878Z,95260.00
2023-05-19T08:54:50.863Z,95259.00
2023-05-19T08:55:50.852Z,95257.00
2023-05-19T08:56:50.889Z,95256.00
2023-05-19T08:57:50.890Z,95254.00
2023-05-19T08:58:50.885Z,95254.00
2023-05-19T08:59:50.911Z,95253.00
2023-05-19T09:00:50.949Z,95253.00
2023-05-19T09:01:50.924Z,95254.00
2023-05-19T09:03:00.167Z,95252.00
2023-05-19T09:03:52.011Z,95253.00
2023-05-19T09:04:50.900Z,95253.00
2023-05-19T09:05:50.897Z,95252.00
2023-05-19T09:06:50.884Z,95251.00
2023-05-19T09:07:50.884Z,95251.00
2023-05-19T09:08:50.862Z,95248.00
2023-05-19T09:09:50.889Z,95251.00
2023-05-19T09:10:50.852Z,95252.00
2023-05-19T09:11:50.884Z,95251.00
2023-05-19T09:12:50.831Z,95249.00
2023-05-19T09:13:50.791Z,95248.00
2023-05-19T09:14:50.821Z,95245.00
2023-05-19T09:15:50.796Z,95243.00
2023-05-19T09:16:50.868Z,95243.00
2023-05-19T09:17:50.828Z,95241.00
2023-05-19T09:18:50.802Z,95239.00
2023-05-19T09:19:50.821Z,95235.00
2023-05-19T09:20:50.833Z,95236.00
2023-05-19T09:21:50.847Z,95233.00
2023-05-19T09:22:50.903Z,95230.00
2023-05-19T09:23:50.927Z,95227.00
2023-05-19T09:24:50.974Z,95228.00
2023-05-19T09:25:51.036Z,95224.00
2023-05-19T09:26:51.024Z,95225.00
2023-05-19T09:27:51.049Z,95225.00
2023-05-19T09:28:51.073Z,95223.00
2023-05-19T09:29:51.079Z,95221.00
2023-05-19T09:30:51.086Z,95219.00
2023-05-19T09:31:51.210Z,95219.00
2023-05-19T09:32:51.263Z,95217.00
2023-05-19T09:33:51.222Z,95215.00
2023-05-19T09:34:51.277Z,95215.00
2023-05-19T09:35:51.320Z,95214.00
2023-05-19T09:36:51.309Z,95211.00
2023-05-19T09:37:51.389Z,95209.00
2023-05-19T09:38:51.413Z,95208.00
2023-05-19T09:39:51.465Z,95206.00
2023-05-19T09:40:51.491Z,95205.00
2023-05-19T09:41:51.569Z,95204.00
2023-05-19T09:42:51.609Z,95203.00
2023-05-19T09:43:51.674Z,95201.00
2023-05-19T09:44:51.698Z,95200.00
2023-05-19T09:45:51.886Z,95200.00
2023-05-19T09:46:51.841Z,95200.00
2023-05-19T09:47:51.896Z,95200.00
2023-05-19T09:48:51.969Z,95202.00
2023-05-19T09:49:51.999Z,95199.00
2023-05-19T09:50:52.080Z,95194.00
2023-05-19T09:51:52.158Z,95194.00
2023-05-19T09:52:52.183Z,95189.00
2023-05-19T09:53:52.273Z,95191.00
2023-05-19T09:54:52.334Z,95187.00
2023-05-19T09:55:52.374Z,95189.00
2023-05-19T09:56:52.445Z,95190.00
2023-05-19T09:57:52.475Z,95186.00
2023-05-19T09:58:52.585Z,95184.00
2023-05-19T09:59:52.615Z,95184.00
2023-05-19T10:00:52.706Z,95177.00
2023-05-19T10:01:52.756Z,95177.00
2023-05-19T10:02:52.945Z,95174.00
2023-05-19T10:03:52.863Z,95172.00
2023-05-19T10:04:52.942Z,95169.00
2023-05-19T10:05:52.970Z,95168.00
2023-05-19T10:06:53.056Z,95163.00
2023-05-19T10:07:53.134Z,95164.00
2023-05-19T10:08:53.143Z,95165.00
2023-05-19T10:09:53.232Z,95161.00
2023-05-19T10:10:53.249Z,95159.00
2023-05-19T10:11:53.326Z,95157.00
2023-05-19T10:12:53.379Z,95156.00
2023-05-19T10:13:53.415Z,95152.00
2023-05-19T10:14:53.495Z,95150.00
2023-05-19T10:16:53.672Z,95149.00
2023-05-19T10:17:53.528Z,95146.00
2023-05-19T10:18:53.530Z,95148.00
2023-05-19T10:19:53.515Z,95147.00
2023-05-19T10:20:53.492Z,95145.00
2023-05-19T10:21:53.511Z,95141.00
2023-05-19T10:22:53.506Z,95143.00
2023-05-19T10:23:54.413Z,95143.00
2023-05-19T10:24:53.471Z,95137.00
2023-05-19T10:25:53.471Z,95138.00
2023-05-19T10:26:53.479Z,95138.00
2023-05-19T10:27:53.433Z,95135.00
2023-05-19T10:28:53.447Z,95134.00
2023-05-19T10:29:53.444Z,95135.00
2023-05-19T10:30:53.449Z,95134.00
2023-05-19T10:31:53.429Z,95134.00
2023-05-19T10:32:53.418Z,95131.00
2023-05-19T10:33:53.409Z,95129.00
2023-05-19T10:34:53.428Z,95128.00
2023-05-19T10:35:53.393Z,95127.00
2023-05-19T10:36:53.414Z,95122.00
2023-05-19T10:37:53.395Z,95121.00
2023-05-19T10:38:53.380Z,95120.00
2023-05-19T10:39:53.369Z,95118.00
2023-05-19T10:40:53.354Z,95117.00
2023-05-19T10:41:53.364Z,95115.00
2023-05-19T10:42:53.357Z,95114.00
2023-05-19T10:43:53.308Z,95116.00
2023-05-19T10:44:53.370Z,95111.00
2023-05-19T10:45:53.335Z,95113.00
2023-05-19T10:46:54.931Z,95110.00
2023-05-19T10:47:53.546Z,95111.00
2023-05-19T10:48:53.574Z,95107.00
2023-05-19T10:49:53.580Z,95108.00
2023-05-19T10:50:53.619Z,95110.00
2023-05-19T10:51:53.652Z,95107.00
2023-05-19T10:52:53.706Z,95106.00
2023-05-19T10:53:53.713Z,95107.00
2023-05-19T10:54:53.768Z,95103.00
2023-05-19T10:55:53.832Z,95104.00
2023-05-19T10:56:53.880Z,95100.00
2023-05-19T10:57:53.910Z,95099.00
2023-05-19T10:58:53.927Z,95098.00
2023-05-19T10:59:53.997Z,95098.00
2023-05-19T11:00:54.021Z,95099.00
2023-05-19T11:01:54.064Z,95098.00
2023-05-19T11:02:54.100Z,95097.00
2023-05-19T11:03:54.182Z,95090.00
2023-05-19T11:04:54.190Z,95088.00
2023-05-19T11:05:54.188Z,95087.00
2023-05-19T11:06:54.234Z,95088.00
2023-05-19T11:07:54.260Z,95089.00
2023-05-19T11:08:54.301Z,95090.00
2023-05-19T11:09:54.332Z,95091.00
2023-05-19T11:10:54.375Z,95089.00
2023-05-19T11:11:54.472Z,95090.00
2023-05-19T11:12:54.412Z,95090.00
2023-05-19T11:13:54.538Z,95086.00
2023-05-19T11:14:54.501Z,95092.00
2023-05-19T11:15:54.613Z,95087.00
2023-05-19T11:16:54.589Z,95088.00
2023-05-19T11:17:54.694Z,95088.00
2023-05-19T11:18:54.672Z,95085.00
2023-05-19T11:19:54.787Z,95082.00
2023-05-19T11:20:54.739Z,95084.00
2023-05-19T11:21:54.720Z,95084.00
2023-05-19T11:22:54.811Z,95082.00
2023-05-19T11:23:54.866Z,95082.00
2023-05-19T11:24:54.842Z,95079.00
2023-05-19T11:25:54.873Z,95078.00
2023-05-19T11:26:54.887Z,95078.00
2023-05-19T11:27:54.921Z,95078.00
2023-05-19T11:28:54.956Z,95074.00
2023-05-19T11:29:54.983Z,95071.00
2023-05-19T11:30:55.043Z,95071.00
2023-05-19T11:31:55.116Z,95065.00
2023-05-19T11:32:55.137Z,95064.00
2023-05-19T11:33:55.101Z,95060.00
2023-05-19T11:34:55.113Z,95060.00
2023-05-19T11:35:55.152Z,95059.00
2023-05-19T11:36:55.166Z,95058.00
2023-05-19T11:37:55.182Z,95056.00
2023-05-19T11:38:55.199Z,95053.00
2023-05-19T11:39:55.211Z,95053.00
2023-05-19T11:40:55.266Z,95051.00
2023-05-19T11:41:55.298Z,95050.00
2023-05-19T11:42:55.305Z,95049.00
2023-05-19T11:43:55.316Z,95047.00
2023-05-19T11:44:55.366Z,95046.00
2023-05-19T11:45:55.432Z,95044.00